Time,TemperatureF,DewpointF,PressureIn,WindDirection,WindDirectionDegrees,WindSpeedMPH,WindSpeedGustMPH,Humidity,HourlyPrecipIn,Conditions,Clouds,dailyrainin,SoftwareType,DateUTC
2013-12-19 00:02:00,16.0,16.0,29.68,WNW,293,4.0,10.7,100,0.00,,,0.00,VWS V13.01,2013-12-19 05:02:00,
2013-12-19 00:04:00,16.0,16.0,29.68,WNW,291,3.4,8.1,100,0.00,,,0.00,VWS V13.01,2013-12-19 05:04:00,
2013-12-19 00:08:00,16.0,16.0,29.68,NW,319,4.0,10.7,100,0.00,,,0.00,VWS V13.01,2013-12-19 05:08:00,
2013-12-19 00:12:00,16.0,16.0,29.68,NNW,332,4.0,5.4,100,0.00,,,0.00,VWS V13.01,2013-12-19 05:12:00,
2013-12-19 00:16:00,16.0,16.0,29.68,NNW,338,0.0,9.8,100,0.00,,,0.00,VWS V13.01,2013-12-19 05:16:00,
2013-12-19 00:22:00,16.0,16.0,29.68,NNW,338,5.4,8.9,100,0.00,,,0.00,VWS V13.01,2013-12-19 05:22:00,
2013-12-19 00:24:00,16.2,16.2,29.68,North,353,4.7,8.1,100,0.00,,,0.00,VWS V13.01,2013-12-19 05:24:00,
2013-12-19 00:30:00,16.3,16.3,29.68,NW,318,6.7,8.9,100,0.00,,,0.00,VWS V13.01,2013-12-19 05:30:00,
2013-12-19 00:36:00,16.3,16.3,29.68,North,353,4.7,8.1,100,0.00,,,0.00,VWS V13.01,2013-12-19 05:36:00,
2013-12-19 00:42:00,16.2,16.2,29.68,NW,313,3.4,10.7,100,0.00,,,0.00,VWS V13.01,2013-12-19 05:42:00,
2013-12-19 00:48:00,16.3,16.3,29.68,NW,314,8.1,12.5,100,0.00,,,0.00,VWS V13.01,2013-12-19 05:48:00,
2013-12-19 00:54:00,16.3,16.3,29.68,NW,325,6.0,11.6,100,0.00,,,0.00,VWS V13.01,2013-12-19 05:54:00,
2013-12-19 01:00:00,16.3,16.3,29.68,NNW,327,4.0,8.1,100,0.00,,,0.00,VWS V13.01,2013-12-19 06:00:00,
2013-12-19 01:06:00,16.5,16.5,29.68,North,353,6.0,10.7,100,0.00,,,0.00,VWS V13.01,2013-12-19 06:06:00,
2013-12-19 01:12:00,16.3,16.3,29.68,North,0,0.0,7.2,100,0.00,,,0.00,VWS V13.01,2013-12-19 06:12:00,
2013-12-19 01:18:00,16.2,16.2,29.68,North,353,0.0,0.0,100,0.00,,,0.00,VWS V13.01,2013-12-19 06:18:00,
2013-12-19 01:24:00,16.3,16.3,29.68,NW,322,5.4,8.1,100,0.00,,,0.00,VWS V13.01,2013-12-19 06:24:00,
2013-12-19 01:30:00,16.3,16.3,29.68,NNW,337,0.0,5.4,100,0.00,,,0.00,VWS V13.01,2013-12-19 06:30:00,
2013-12-19 01:36:00,16.5,16.5,29.68,NW,315,6.7,8.9,100,0.00,,,0.00,VWS V13.01,2013-12-19 06:36:00,
2013-12-19 01:42:00,16.5,16.5,29.68,NNW,328,4.7,7.2,100,0.00,,,0.00,VWS V13.01,2013-12-19 06:42:00,
2013-12-19 01:48:00,16.5,16.5,29.68,North,353,5.4,9.8,100,0.00,,,0.00,VWS V13.01,2013-12-19 06:48:00,
2013-12-19 01:54:00,16.5,16.5,29.68,NNW,346,4.7,9.8,100,0.00,,,0.00,VWS V13.01,2013-12-19 06:54:00,
2013-12-19 02:00:00,16.5,16.5,29.68,NW,324,5.4,8.1,100,0.00,,,0.00,VWS V13.01,2013-12-19 07:00:00,
2013-12-19 02:06:00,16.5,16.5,29.68,WNW,295,6.0,8.1,100,0.00,,,0.00,VWS V13.01,2013-12-19 07:06:00,
2013-12-19 02:12:00,16.3,16.3,29.68,NW,314,4.0,7.2,100,0.00,,,0.00,VWS V13.01,2013-12-19 07:12:00,
2013-12-19 02:18:00,16.2,16.2,29.68,NW,313,3.4,7.2,100,0.00,,,0.00,VWS V13.01,2013-12-19 07:18:00,
2013-12-19 02:24:00,16.2,16.2,29.68,NW,308,0.0,7.2,100,0.00,,,0.00,VWS V13.01,2013-12-19 07:24:00,
2013-12-19 02:30:00,16.2,16.2,29.68,NW,305,5.4,8.9,100,0.00,,,0.00,VWS V13.01,2013-12-19 07:30:00,
2013-12-19 02:36:00,16.3,16.3,29.68,WNW,291,4.7,8.1,100,0.00,,,0.00,VWS V13.01,2013-12-19 07:36:00,
2013-12-19 02:42:00,16.3,16.3,29.68,WNW,283,0.0,10.7,100,0.00,,,0.00,VWS V13.01,2013-12-19 07:42:00,
2013-12-19 02:48:00,16.3,16.3,29.68,NW,305,6.0,11.6,100,0.00,,,0.00,VWS V13.01,2013-12-19 07:48:00,
2013-12-19 02:54:00,16.2,16.2,29.68,WNW,295,5.4,10.7,100,0.00,,,0.00,VWS V13.01,2013-12-19 07:54:00,
2013-12-19 03:00:00,16.2,16.2,29.68,West,268,3.4,8.1,100,0.00,,,0.00,VWS V13.01,2013-12-19 08:00:00,
2013-12-19 03:06:00,16.0,16.0,29.68,NW,308,3.4,10.7,100,0.00,,,0.00,VWS V13.01,2013-12-19 08:06:00,
2013-12-19 03:12:00,16.0,16.0,29.68,WNW,291,4.0,8.9,100,0.00,,,0.00,VWS V13.01,2013-12-19 08:12:00,
2013-12-19 03:18:00,16.0,16.0,29.68,NW,306,0.0,6.3,100,0.00,,,0.00,VWS V13.01,2013-12-19 08:18:00,
2013-12-19 03:24:00,15.8,15.8,29.68,WNW,291,0.0,7.2,100,0.00,,,0.00,VWS V13.01,2013-12-19 08:24:00,
2013-12-19 03:30:00,15.8,15.8,29.68,WNW,286,0.0,0.0,100,0.00,,,0.00,VWS V13.01,2013-12-19 08:30:00,
2013-12-19 03:36:00,15.8,15.8,29.68,West,271,0.0,0.0,100,0.00,,,0.00,VWS V13.01,2013-12-19 08:36:00,
2013-12-19 03:42:00,15.4,15.4,29.68,West,271,0.0,0.0,100,0.00,,,0.00,VWS V13.01,2013-12-19 08:42:00,
2013-12-19 03:48:00,15.3,15.3,29.68,West,271,0.0,0.0,100,0.00,,,0.00,VWS V13.01,2013-12-19 08:48:00,
2013-12-19 03:54:00,14.9,14.9,29.65,West,271,0.0,0.0,100,0.00,,,0.00,VWS V13.01,2013-12-19 08:54:00,
2013-12-19 04:00:00,14.5,14.5,29.65,West,271,0.0,0.0,100,0.00,,,0.00,VWS V13.01,2013-12-19 09:00:00,
2013-12-19 04:06:00,14.4,14.4,29.68,West,271,0.0,0.0,100,0.00,,,0.00,VWS V13.01,2013-12-19 09:06:00,
2013-12-19 04:12:00,13.8,13.8,29.68,West,271,0.0,0.0,100,0.00,,,0.00,VWS V13.01,2013-12-19 09:12:00,
2013-12-19 04:18:00,13.8,13.8,29.68,West,271,0.0,0.0,100,0.00,,,0.00,VWS V13.01,2013-12-19 09:18:00,
2013-12-19 04:24:00,13.8,13.8,29.68,West,271,0.0,0.0,100,0.00,,,0.00,VWS V13.01,2013-12-19 09:24:00,
2013-12-19 04:30:00,13.6,13.6,29.68,West,271,0.0,0.0,100,0.00,,,0.00,VWS V13.01,2013-12-19 09:30:00,
2013-12-19 04:36:00,13.6,13.6,29.65,West,271,0.0,0.0,100,0.00,,,0.00,VWS V13.01,2013-12-19 09:36:00,
2013-12-19 04:42:00,13.5,13.5,29.65,West,271,0.0,0.0,100,0.00,,,0.00,VWS V13.01,2013-12-19 09:42:00,
2013-12-19 04:48:00,13.5,13.5,29.65,West,271,0.0,0.0,100,0.00,,,0.00,VWS V13.01,2013-12-19 09:48:00,
2013-12-19 04:54:00,13.5,13.5,29.65,West,271,0.0,0.0,100,0.00,,,0.00,VWS V13.01,2013-12-19 09:54:00,
2013-12-19 05:00:00,13.8,13.8,29.65,West,271,0.0,0.0,100,0.00,,,0.00,VWS V13.01,2013-12-19 10:00:00,
2013-12-19 05:06:00,14.4,14.4,29.65,West,271,0.0,0.0,100,0.00,,,0.00,VWS V13.01,2013-12-19 10:06:00,
2013-12-19 05:12:00,15.1,15.1,29.65,West,271,0.0,0.0,100,0.00,,,0.00,VWS V13.01,2013-12-19 10:12:00,
2013-12-19 05:18:00,15.4,15.4,29.65,West,271,0.0,0.0,100,0.00,,,0.00,VWS V13.01,2013-12-19 10:18:00,
2013-12-19 05:24:00,15.8,15.8,29.65,West,271,0.0,0.0,100,0.00,,,0.00,VWS V13.01,2013-12-19 10:24:00,
2013-12-19 05:30:00,16.2,16.2,29.65,West,271,0.0,0.0,100,0.00,,,0.00,VWS V13.01,2013-12-19 10:30:00,
2013-12-19 05:36:00,16.2,16.2,29.65,West,271,0.0,0.0,100,0.00,,,0.00,VWS V13.01,2013-12-19 10:36:00,
2013-12-19 05:42:00,16.5,16.5,29.65,West,271,0.0,0.0,100,0.00,,,0.00,VWS V13.01,2013-12-19 10:42:00,
2013-12-19 05:48:00,16.5,16.5,29.65,West,271,0.0,0.0,100,0.00,,,0.00,VWS V13.01,2013-12-19 10:48:00,
2013-12-19 05:54:00,16.3,16.3,29.65,West,271,0.0,0.0,100,0.00,,,0.00,VWS V13.01,2013-12-19 10:54:00,
2013-12-19 06:00:00,16.5,16.5,29.65,West,271,0.0,0.0,100,0.00,,,0.00,VWS V13.01,2013-12-19 11:00:00,
2013-12-19 06:06:00,16.7,16.7,29.65,West,271,0.0,0.0,100,0.00,,,0.00,VWS V13.01,2013-12-19 11:06:00,
2013-12-19 06:12:00,16.7,16.7,29.65,West,271,0.0,0.0,100,0.00,,,0.00,VWS V13.01,2013-12-19 11:12:00,
2013-12-19 06:18:00,16.7,16.7,29.65,West,271,0.0,0.0,100,0.00,,,0.00,VWS V13.01,2013-12-19 11:18:00,
2013-12-19 06:24:00,16.5,16.5,29.65,West,271,0.0,0.0,100,0.00,,,0.00,VWS V13.01,2013-12-19 11:24:00,
2013-12-19 06:30:00,16.3,16.3,29.65,West,271,0.0,0.0,100,0.00,,,0.00,VWS V13.01,2013-12-19 11:30:00,
2013-12-19 06:36:00,16.3,16.3,29.65,West,271,0.0,0.0,100,0.00,,,0.00,VWS V13.01,2013-12-19 11:36:00,
2013-12-19 06:42:00,16.3,16.3,29.65,West,271,0.0,0.0,100,0.00,,,0.00,VWS V13.01,2013-12-19 11:42:00,
2013-12-19 06:48:00,16.3,16.3,29.65,West,271,0.0,0.0,100,0.00,,,0.00,VWS V13.01,2013-12-19 11:48:00,
2013-12-19 06:54:00,16.5,16.5,29.62,West,270,0.0,0.0,100,0.00,,,0.00,VWS V13.01,2013-12-19 11:54:00,
2013-12-19 07:00:00,16.3,16.3,29.62,West,270,0.0,0.0,100,0.00,,,0.00,VWS V13.01,2013-12-19 12:00:00,
2013-12-19 07:06:00,16.3,16.3,29.62,West,270,0.0,0.0,100,0.00,,,0.00,VWS V13.01,2013-12-19 12:06:00,
2013-12-19 07:12:00,16.3,16.3,29.62,WSW,258,0.0,0.0,100,0.00,,,0.00,VWS V13.01,2013-12-19 12:12:00,
2013-12-19 07:18:00,16.2,16.2,29.62,SE,126,0.0,5.4,100,0.00,,,0.00,VWS V13.01,2013-12-19 12:18:00,
2013-12-19 07:24:00,16.0,16.0,29.62,SE,126,0.0,0.0,100,0.00,,,0.00,VWS V13.01,2013-12-19 12:24:00,
2013-12-19 07:30:00,16.0,16.0,29.62,SE,125,0.0,0.0,100,0.00,,,0.00,VWS V13.01,2013-12-19 12:30:00,
2013-12-19 07:36:00,15.8,15.8,29.62,SE,125,0.0,0.0,100,0.00,,,0.00,VWS V13.01,2013-12-19 12:36:00,
2013-12-19 07:42:00,15.8,15.8,29.62,SE,125,0.0,0.0,100,0.00,,,0.00,VWS V13.01,2013-12-19 12:42:00,
2013-12-19 07:48:00,15.8,15.8,29.62,SE,125,0.0,0.0,100,0.00,,,0.00,VWS V13.01,2013-12-19 12:48:00,
2013-12-19 07:54:00,15.8,15.8,29.62,ESE,118,0.0,0.0,100,0.00,,,0.00,VWS V13.01,2013-12-19 12:54:00,
2013-12-19 08:00:00,15.8,15.8,29.62,SE,125,0.0,0.0,100,0.00,,,0.00,VWS V13.01,2013-12-19 13:00:00,
2013-12-19 08:06:00,15.8,15.8,29.62,ESE,119,0.0,0.0,100,0.00,,,0.00,VWS V13.01,2013-12-19 13:06:00,
2013-12-19 08:12:00,15.8,15.8,29.62,ESE,119,0.0,0.0,100,0.00,,,0.00,VWS V13.01,2013-12-19 13:12:00,
2013-12-19 08:18:00,16.0,16.0,29.62,ESE,120,4.0,5.4,100,0.00,,,0.00,VWS V13.01,2013-12-19 13:18:00,
2013-12-19 08:24:00,16.0,16.0,29.62,ESE,119,0.0,0.0,100,0.00,,,0.00,VWS V13.01,2013-12-19 13:24:00,
2013-12-19 08:30:00,16.3,16.3,29.62,ESE,123,0.0,0.0,100,0.00,,,0.00,VWS V13.01,2013-12-19 13:30:00,
2013-12-19 08:36:00,16.5,16.5,29.62,ESE,123,0.0,0.0,100,0.00,,,0.00,VWS V13.01,2013-12-19 13:36:00,
2013-12-19 08:42:00,16.7,16.7,29.62,ESE,123,0.0,0.0,100,0.00,,,0.00,VWS V13.01,2013-12-19 13:42:00,
2013-12-19 08:48:00,16.9,16.9,29.62,ESE,123,0.0,0.0,100,0.00,,,0.00,VWS V13.01,2013-12-19 13:48:00,
2013-12-19 08:54:00,16.9,16.9,29.62,ESE,103,3.4,4.5,100,0.00,,,0.00,VWS V13.01,2013-12-19 13:54:00,
2013-12-19 09:00:00,17.1,17.1,29.62,ESE,109,0.0,0.0,100,0.00,,,0.00,VWS V13.01,2013-12-19 14:00:00,
2013-12-19 09:06:00,17.1,17.1,29.62,ESE,105,0.0,0.0,100,0.00,,,0.00,VWS V13.01,2013-12-19 14:06:00,
2013-12-19 09:12:00,17.4,17.4,29.62,SE,129,4.7,7.2,100,0.00,,,0.00,VWS V13.01,2013-12-19 14:12:00,
2013-12-19 09:18:00,17.6,17.6,29.62,ESE,117,4.0,5.4,100,0.00,,,0.00,VWS V13.01,2013-12-19 14:18:00,
2013-12-19 09:24:00,17.8,17.8,29.59,ESE,121,0.0,5.4,100,0.00,,,0.00,VWS V13.01,2013-12-19 14:24:00,
2013-12-19 09:30:00,18.5,18.5,29.59,ESE,121,0.0,0.0,100,0.00,,,0.00,VWS V13.01,2013-12-19 14:30:00,
2013-12-19 09:36:00,19.0,19.0,29.59,ESE,121,0.0,0.0,100,0.00,,,0.00,VWS V13.01,2013-12-19 14:36:00,
2013-12-19 09:42:00,19.2,19.2,29.59,ESE,109,0.0,0.0,100,0.00,,,0.00,VWS V13.01,2013-12-19 14:42:00,
2013-12-19 09:48:00,19.2,19.2,29.59,ESE,103,4.0,7.2,100,0.00,,,0.00,VWS V13.01,2013-12-19 14:48:00,
2013-12-19 09:54:00,18.9,18.9,29.59,ESE,106,4.7,7.2,100,0.00,,,0.00,VWS V13.01,2013-12-19 14:54:00,
2013-12-19 10:00:00,18.7,18.7,29.59,ESE,105,4.0,8.1,100,0.00,,,0.00,VWS V13.01,2013-12-19 15:00:00,
2013-12-19 10:06:00,19.0,19.0,29.59,ESE,108,0.0,6.3,100,0.00,,,0.00,VWS V13.01,2013-12-19 15:06:00,
2013-12-19 10:12:00,19.6,19.6,29.59,ESE,105,0.0,0.0,100,0.00,,,0.00,VWS V13.01,2013-12-19 15:12:00,
2013-12-19 10:18:00,19.6,19.6,29.59,ESE,105,0.0,0.0,100,0.00,,,0.00,VWS V13.01,2013-12-19 15:18:00,
2013-12-19 10:24:00,20.3,20.3,29.59,ESE,105,0.0,0.0,100,0.00,,,0.00,VWS V13.01,2013-12-19 15:24:00,
2013-12-19 10:30:00,20.5,20.5,29.59,ESE,105,0.0,0.0,100,0.00,,,0.00,VWS V13.01,2013-12-19 15:30:00,
2013-12-19 10:36:00,19.8,19.8,29.59,ESE,108,4.0,8.1,100,0.00,,,0.00,VWS V13.01,2013-12-19 15:36:00,
2013-12-19 10:42:00,20.1,20.1,29.59,ESE,122,4.0,6.3,100,0.00,,,0.00,VWS V13.01,2013-12-19 15:42:00,
2013-12-19 10:48:00,20.3,20.3,29.59,SE,124,0.0,8.1,100,0.00,,,0.00,VWS V13.01,2013-12-19 15:48:00,
2013-12-19 10:54:00,20.3,20.3,29.59,SE,124,4.7,7.2,100,0.00,,,0.00,VWS V13.01,2013-12-19 15:54:00,
2013-12-19 11:00:00,20.1,20.1,29.59,ESE,118,3.4,8.1,100,0.00,,,0.00,VWS V13.01,2013-12-19 16:00:00,
2013-12-19 11:06:00,20.1,20.1,29.59,ESE,103,4.7,7.2,100,0.00,,,0.00,VWS V13.01,2013-12-19 16:06:00,
2013-12-19 11:12:00,19.8,19.8,29.59,ESE,107,4.7,7.2,100,0.00,,,0.00,VWS V13.01,2013-12-19 16:12:00,
2013-12-19 11:18:00,20.1,20.1,29.59,ESE,122,4.7,7.2,100,0.00,,,0.00,VWS V13.01,2013-12-19 16:18:00,
2013-12-19 11:24:00,20.5,20.5,29.59,ESE,120,4.7,8.1,100,0.00,,,0.00,VWS V13.01,2013-12-19 16:24:00,
2013-12-19 11:30:00,21.0,21.0,29.59,SE,143,6.0,8.9,100,0.00,,,0.00,VWS V13.01,2013-12-19 16:30:00,
2013-12-19 11:36:00,21.6,21.6,29.59,ESE,119,0.0,7.2,100,0.00,,,0.00,VWS V13.01,2013-12-19 16:36:00,
2013-12-19 11:42:00,21.7,21.7,29.59,ESE,120,0.0,4.5,100,0.00,,,0.00,VWS V13.01,2013-12-19 16:42:00,
2013-12-19 11:48:00,22.3,22.3,29.59,SE,124,0.0,0.0,100,0.00,,,0.00,VWS V13.01,2013-12-19 16:48:00,
2013-12-19 11:54:00,23.0,23.0,29.59,SE,124,0.0,0.0,100,0.00,,,0.00,VWS V13.01,2013-12-19 16:54:00,
2013-12-19 12:00:00,23.5,22.6,29.59,SE,124,0.0,0.0,96,0.00,,,0.00,VWS V13.01,2013-12-19 17:00:00,
2013-12-19 12:06:00,23.4,22.4,29.59,ESE,103,3.4,8.1,96,0.00,,,0.00,VWS V13.01,2013-12-19 17:06:00,
2013-12-19 12:12:00,23.4,22.4,29.59,ESE,103,0.0,0.0,96,0.00,,,0.00,VWS V13.01,2013-12-19 17:12:00,
2013-12-19 12:18:00,23.4,22.4,29.59,ESE,103,0.0,0.0,96,0.00,,,0.00,VWS V13.01,2013-12-19 17:18:00,
2013-12-19 12:24:00,23.5,22.6,29.59,ESE,103,0.0,0.0,96,0.00,,,0.00,VWS V13.01,2013-12-19 17:24:00,
2013-12-19 12:30:00,23.2,22.2,29.59,ESE,103,0.0,0.0,96,0.00,,,0.00,VWS V13.01,2013-12-19 17:30:00,
2013-12-19 12:36:00,23.0,23.0,29.59,ESE,103,0.0,0.0,100,0.00,,,0.00,VWS V13.01,2013-12-19 17:36:00,
2013-12-19 12:42:00,23.2,22.2,29.59,ESE,103,0.0,0.0,96,0.00,,,0.00,VWS V13.01,2013-12-19 17:42:00,
2013-12-19 12:48:00,23.7,22.8,29.59,ESE,103,0.0,0.0,96,0.00,,,0.00,VWS V13.01,2013-12-19 17:48:00,
2013-12-19 12:54:00,24.1,23.1,29.56,ESE,103,0.0,0.0,96,0.00,,,0.00,VWS V13.01,2013-12-19 17:54:00,
2013-12-19 13:00:00,23.9,22.9,29.56,ESE,104,0.0,0.0,96,0.00,,,0.00,VWS V13.01,2013-12-19 18:00:00,
2013-12-19 13:06:00,24.4,23.5,29.56,ESE,104,0.0,0.0,96,0.00,,,0.00,VWS V13.01,2013-12-19 18:06:00,
2013-12-19 13:12:00,24.6,23.6,29.56,ESE,120,0.0,4.5,96,0.00,,,0.00,VWS V13.01,2013-12-19 18:12:00,
2013-12-19 13:18:00,25.3,24.4,29.56,ESE,120,0.0,0.0,96,0.00,,,0.00,VWS V13.01,2013-12-19 18:18:00,
2013-12-19 13:24:00,24.4,23.5,29.56,SE,128,0.0,0.0,96,0.00,,,0.00,VWS V13.01,2013-12-19 18:24:00,
2013-12-19 13:28:00,24.8,23.8,29.56,SE,127,0.0,0.0,96,0.00,,,0.00,VWS V13.01,2013-12-19 18:28:00,
2013-12-19 13:34:00,24.6,23.6,29.56,SE,127,0.0,0.0,96,0.00,,,0.00,VWS V13.01,2013-12-19 18:34:00,
2013-12-19 13:40:00,24.6,23.6,29.56,SE,127,0.0,0.0,96,0.00,,,0.00,VWS V13.01,2013-12-19 18:40:00,
2013-12-19 13:46:00,25.0,24.0,29.56,SE,127,0.0,0.0,96,0.00,,,0.00,VWS V13.01,2013-12-19 18:46:00,
2013-12-19 13:52:00,24.8,23.8,29.56,SE,127,0.0,0.0,96,0.00,,,0.00,VWS V13.01,2013-12-19 18:52:00,
2013-12-19 13:58:00,24.4,23.5,29.56,SE,127,0.0,0.0,96,0.00,,,0.00,VWS V13.01,2013-12-19 18:58:00,
2013-12-19 14:04:00,26.4,25.4,29.56,SE,127,0.0,0.0,96,0.00,,,0.00,VWS V13.01,2013-12-19 19:04:00,
2013-12-19 14:10:00,27.7,23.5,29.59,SE,127,0.0,0.0,84,0.00,,,0.00,VWS V13.01,2013-12-19 19:10:00,
2013-12-19 14:16:00,26.1,21.9,29.59,SE,128,0.0,0.0,84,0.00,,,0.00,VWS V13.01,2013-12-19 19:16:00,
2013-12-19 14:22:00,25.5,21.4,29.59,SE,127,0.0,0.0,84,0.00,,,0.00,VWS V13.01,2013-12-19 19:22:00,
2013-12-19 14:28:00,24.4,23.5,29.59,SE,127,0.0,0.0,96,0.00,,,0.00,VWS V13.01,2013-12-19 19:28:00,
2013-12-19 14:34:00,23.7,22.8,29.59,SE,128,0.0,0.0,96,0.00,,,0.00,VWS V13.01,2013-12-19 19:34:00,
2013-12-19 14:40:00,23.9,22.9,29.59,SE,128,0.0,0.0,96,0.00,,,0.00,VWS V13.01,2013-12-19 19:40:00,
2013-12-19 14:46:00,23.9,22.9,29.59,SE,128,0.0,0.0,96,0.00,,,0.00,VWS V13.01,2013-12-19 19:46:00,
2013-12-19 14:52:00,24.1,24.1,29.59,SE,128,0.0,0.0,100,0.00,,,0.00,VWS V13.01,2013-12-19 19:52:00,
2013-12-19 14:58:00,24.4,24.4,29.59,SE,128,0.0,0.0,100,0.00,,,0.00,VWS V13.01,2013-12-19 19:58:00,
2013-12-19 15:04:00,25.0,25.0,29.59,WSW,249,0.0,0.0,100,0.00,,,0.00,VWS V13.01,2013-12-19 20:04:00,
2013-12-19 15:10:00,25.2,25.2,29.59,WSW,249,0.0,0.0,100,0.00,,,0.00,VWS V13.01,2013-12-19 20:10:00,
2013-12-19 15:16:00,25.2,25.2,29.59,WSW,249,0.0,0.0,100,0.00,,,0.00,VWS V13.01,2013-12-19 20:16:00,
2013-12-19 15:22:00,24.8,24.8,29.62,West,277,0.0,0.0,100,0.00,,,0.00,VWS V13.01,2013-12-19 20:22:00,
2013-12-19 15:28:00,24.4,24.4,29.62,West,277,0.0,0.0,100,0.00,,,0.00,VWS V13.01,2013-12-19 20:28:00,
2013-12-19 15:34:00,24.4,24.4,29.62,NW,311,4.7,8.9,100,0.00,,,0.00,VWS V13.01,2013-12-19 20:34:00,
2013-12-19 15:40:00,25.0,25.0,29.62,NNW,333,0.0,7.2,100,0.00,,,0.00,VWS V13.01,2013-12-19 20:40:00,
2013-12-19 15:46:00,25.2,25.2,29.62,NNW,335,0.0,5.4,100,0.00,,,0.00,VWS V13.01,2013-12-19 20:46:00,
2013-12-19 15:52:00,25.2,25.2,29.62,North,353,0.0,5.4,100,0.00,,,0.00,VWS V13.01,2013-12-19 20:52:00,
2013-12-19 15:58:00,25.2,25.2,29.62,NW,309,4.0,7.2,100,0.00,,,0.00,VWS V13.01,2013-12-19 20:58:00,
2013-12-19 16:04:00,25.3,25.3,29.62,NW,320,4.0,8.1,100,0.00,,,0.00,VWS V13.01,2013-12-19 21:04:00,
2013-12-19 16:10:00,25.3,25.3,29.62,WNW,296,0.0,6.3,100,0.00,,,0.00,VWS V13.01,2013-12-19 21:10:00,
2013-12-19 16:16:00,25.5,25.5,29.62,NNW,333,3.4,6.3,100,0.00,,,0.00,VWS V13.01,2013-12-19 21:16:00,
2013-12-19 16:22:00,25.7,25.7,29.62,NW,316,3.4,8.1,100,0.00,,,0.00,VWS V13.01,2013-12-19 21:22:00,
2013-12-19 16:28:00,25.9,25.9,29.62,NW,318,3.4,8.1,100,0.00,,,0.00,VWS V13.01,2013-12-19 21:28:00,
2013-12-19 16:34:00,26.1,26.1,29.62,NW,314,4.7,11.6,100,0.00,,,0.00,VWS V13.01,2013-12-19 21:34:00,
2013-12-19 16:40:00,26.2,26.2,29.62,NW,323,5.4,7.2,100,0.00,,,0.00,VWS V13.01,2013-12-19 21:40:00,
2013-12-19 16:46:00,26.4,26.4,29.62,WNW,287,5.4,8.1,100,0.00,,,0.00,VWS V13.01,2013-12-19 21:46:00,
2013-12-19 16:52:00,26.4,26.4,29.65,WNW,284,4.0,10.7,100,0.00,,,0.00,VWS V13.01,2013-12-19 21:52:00,
2013-12-19 16:58:00,27.0,27.0,29.65,North,353,7.4,11.6,100,0.00,,,0.00,VWS V13.01,2013-12-19 21:58:00,
2013-12-19 17:04:00,27.1,27.1,29.65,NNW,329,4.0,10.7,100,0.00,,,0.00,VWS V13.01,2013-12-19 22:04:00,
2013-12-19 17:10:00,27.1,27.1,29.65,NNW,333,6.0,8.1,100,0.00,,,0.00,VWS V13.01,2013-12-19 22:10:00,
2013-12-19 17:16:00,27.1,27.1,29.65,NW,326,6.0,10.7,100,0.00,,,0.00,VWS V13.01,2013-12-19 22:16:00,
2013-12-19 17:22:00,27.3,27.3,29.65,NW,313,3.4,5.4,100,0.00,,,0.00,VWS V13.01,2013-12-19 22:22:00,
2013-12-19 17:28:00,27.5,27.5,29.65,NNW,348,8.7,11.6,100,0.00,,,0.00,VWS V13.01,2013-12-19 22:28:00,
2013-12-19 17:34:00,27.5,27.5,29.65,NW,320,4.7,8.1,100,0.00,,,0.00,VWS V13.01,2013-12-19 22:34:00,
2013-12-19 17:40:00,27.5,27.5,29.65,NW,305,5.4,7.2,100,0.00,,,0.00,VWS V13.01,2013-12-19 22:40:00,
2013-12-19 17:46:00,27.7,27.7,29.65,NNW,340,4.7,8.9,100,0.00,,,0.00,VWS V13.01,2013-12-19 22:46:00,
2013-12-19 17:52:00,27.9,27.9,29.68,NW,324,7.4,10.7,100,0.00,,,0.00,VWS V13.01,2013-12-19 22:52:00,
2013-12-19 17:58:00,27.9,27.9,29.68,NW,311,6.0,12.5,100,0.00,,,0.00,VWS V13.01,2013-12-19 22:58:00,
2013-12-19 18:04:00,27.9,27.9,29.68,WNW,302,4.0,7.2,100,0.00,,,0.00,VWS V13.01,2013-12-19 23:04:00,
2013-12-19 18:10:00,27.7,27.7,29.68,West,268,7.4,9.8,100,0.00,,,0.00,VWS V13.01,2013-12-19 23:10:00,
2013-12-19 18:16:00,27.9,27.9,29.68,NW,308,4.7,9.8,100,0.00,,,0.00,VWS V13.01,2013-12-19 23:16:00,
2013-12-19 18:22:00,27.9,27.9,29.68,NW,310,0.0,7.2,100,0.00,,,0.00,VWS V13.01,2013-12-19 23:22:00,
2013-12-19 18:28:00,27.9,27.9,29.68,NNW,341,0.0,8.1,100,0.00,,,0.00,VWS V13.01,2013-12-19 23:28:00,
2013-12-19 18:34:00,27.9,27.9,29.68,NNW,341,0.0,0.0,100,0.00,,,0.00,VWS V13.01,2013-12-19 23:34:00,
2013-12-19 18:40:00,27.7,27.7,29.68,NNW,341,0.0,0.0,100,0.00,,,0.00,VWS V13.01,2013-12-19 23:40:00,
2013-12-19 18:46:00,27.9,27.9,29.68,NNW,341,0.0,0.0,100,0.00,,,0.00,VWS V13.01,2013-12-19 23:46:00,
2013-12-19 18:52:00,27.9,27.9,29.68,NNW,341,0.0,0.0,100,0.00,,,0.00,VWS V13.01,2013-12-19 23:52:00,
2013-12-19 18:58:00,27.9,27.9,29.68,NNW,341,0.0,0.0,100,0.00,,,0.00,VWS V13.01,2013-12-19 23:58:00,
2013-12-19 19:04:00,27.7,27.7,29.68,NNW,341,0.0,0.0,100,0.00,,,0.00,VWS V13.01,2013-12-20 00:04:00,
2013-12-19 19:10:00,27.7,27.7,29.68,NNW,341,0.0,0.0,100,0.00,,,0.00,VWS V13.01,2013-12-20 00:10:00,
2013-12-19 19:16:00,27.9,27.9,29.68,NNW,341,0.0,0.0,100,0.00,,,0.00,VWS V13.01,2013-12-20 00:16:00,
2013-12-19 19:22:00,27.9,27.9,29.71,NNW,341,0.0,0.0,100,0.00,,,0.00,VWS V13.01,2013-12-20 00:22:00,
2013-12-19 19:28:00,27.7,27.7,29.71,NNW,341,0.0,0.0,100,0.00,,,0.00,VWS V13.01,2013-12-20 00:28:00,
2013-12-19 19:34:00,27.9,27.9,29.71,NNW,341,0.0,0.0,100,0.00,,,0.00,VWS V13.01,2013-12-20 00:34:00,
2013-12-19 19:40:00,28.2,28.2,29.71,NNW,341,0.0,0.0,100,0.00,,,0.00,VWS V13.01,2013-12-20 00:40:00,
2013-12-19 19:46:00,28.4,28.4,29.71,NNW,341,0.0,0.0,100,0.00,,,0.00,VWS V13.01,2013-12-20 00:46:00,
2013-12-19 19:52:00,28.4,28.4,29.71,NNW,341,0.0,0.0,100,0.00,,,0.00,VWS V13.01,2013-12-20 00:52:00,
2013-12-19 19:58:00,28.6,28.6,29.71,NW,318,0.0,0.0,100,0.00,,,0.00,VWS V13.01,2013-12-20 00:58:00,
2013-12-19 20:04:00,28.6,28.6,29.71,NW,304,0.0,0.0,100,0.00,,,0.00,VWS V13.01,2013-12-20 01:04:00,
2013-12-19 20:10:00,28.6,28.6,29.71,NW,305,0.0,0.0,100,0.00,,,0.00,VWS V13.01,2013-12-20 01:10:00,
2013-12-19 20:16:00,28.6,28.6,29.71,WNW,286,0.0,0.0,100,0.00,,,0.00,VWS V13.01,2013-12-20 01:16:00,
2013-12-19 20:22:00,28.6,28.6,29.71,WNW,290,0.0,0.0,100,0.00,,,0.00,VWS V13.01,2013-12-20 01:22:00,
2013-12-19 20:28:00,28.8,28.8,29.71,WNW,293,0.0,0.0,100,0.00,,,0.00,VWS V13.01,2013-12-20 01:28:00,
2013-12-19 20:34:00,28.6,28.6,29.71,NW,317,0.0,0.0,100,0.00,,,0.00,VWS V13.01,2013-12-20 01:34:00,
2013-12-19 20:40:00,28.8,28.8,29.71,NW,311,0.0,0.0,100,0.00,,,0.00,VWS V13.01,2013-12-20 01:40:00,
2013-12-19 20:46:00,28.6,28.6,29.71,NW,312,0.0,0.0,100,0.00,,,0.00,VWS V13.01,2013-12-20 01:46:00,
2013-12-19 20:52:00,28.6,28.6,29.74,NW,309,0.0,0.0,100,0.00,,,0.00,VWS V13.01,2013-12-20 01:52:00,
2013-12-19 20:58:00,28.9,28.9,29.74,North,353,3.4,6.3,100,0.00,,,0.00,VWS V13.01,2013-12-20 01:58:00,
2013-12-19 21:04:00,28.9,28.9,29.74,NNW,336,5.4,8.1,100,0.00,,,0.00,VWS V13.01,2013-12-20 02:04:00,
2013-12-19 21:10:00,28.9,28.9,29.74,North,353,0.0,7.2,100,0.00,,,0.00,VWS V13.01,2013-12-20 02:10:00,
2013-12-19 21:16:00,28.8,28.8,29.74,North,349,0.0,6.3,100,0.00,,,0.00,VWS V13.01,2013-12-20 02:16:00,
2013-12-19 21:22:00,28.6,28.6,29.74,NNW,343,0.0,4.5,100,0.00,,,0.00,VWS V13.01,2013-12-20 02:22:00,
2013-12-19 21:28:00,28.6,28.6,29.74,NW,323,0.0,0.0,100,0.00,,,0.00,VWS V13.01,2013-12-20 02:28:00,
2013-12-19 21:34:00,28.6,28.6,29.74,NW,317,0.0,0.0,100,0.00,,,0.00,VWS V13.01,2013-12-20 02:34:00,
2013-12-19 21:40:00,28.6,28.6,29.74,NW,317,0.0,0.0,100,0.00,,,0.00,VWS V13.01,2013-12-20 02:40:00,
2013-12-19 21:46:00,28.6,28.6,29.74,NW,309,0.0,0.0,100,0.00,,,0.00,VWS V13.01,2013-12-20 02:46:00,
2013-12-19 21:52:00,28.6,28.6,29.77,NNW,331,0.0,0.0,100,0.00,,,0.00,VWS V13.01,2013-12-20 02:52:00,
2013-12-19 21:58:00,28.6,28.6,29.77,NNW,327,0.0,0.0,100,0.00,,,0.00,VWS V13.01,2013-12-20 02:58:00,
2013-12-19 22:04:00,28.4,28.4,29.77,NNW,327,0.0,0.0,100,0.00,,,0.00,VWS V13.01,2013-12-20 03:04:00,
2013-12-19 22:10:00,28.2,28.2,29.77,NNW,327,0.0,0.0,100,0.00,,,0.00,VWS V13.01,2013-12-20 03:10:00,
2013-12-19 22:16:00,28.2,28.2,29.77,NNW,327,0.0,0.0,100,0.00,,,0.00,VWS V13.01,2013-12-20 03:16:00,
2013-12-19 22:22:00,28.2,28.2,29.77,NNW,327,0.0,0.0,100,0.00,,,0.00,VWS V13.01,2013-12-20 03:22:00,
2013-12-19 22:28:00,28.4,28.4,29.77,NNW,328,0.0,0.0,100,0.00,,,0.00,VWS V13.01,2013-12-20 03:28:00,
2013-12-19 22:34:00,28.0,28.0,29.77,NNW,328,0.0,0.0,100,0.00,,,0.00,VWS V13.01,2013-12-20 03:34:00,
2013-12-19 22:40:00,27.9,27.9,29.77,NNW,328,0.0,0.0,100,0.00,,,0.00,VWS V13.01,2013-12-20 03:40:00,
2013-12-19 22:46:00,27.9,27.9,29.77,NNW,328,0.0,0.0,100,0.00,,,0.00,VWS V13.01,2013-12-20 03:46:00,
2013-12-19 22:52:00,27.9,27.9,29.77,NE,49,0.0,0.0,100,0.00,,,0.00,VWS V13.01,2013-12-20 03:52:00,
2013-12-19 22:58:00,27.7,27.7,29.77,NE,49,0.0,0.0,100,0.00,,,0.00,VWS V13.01,2013-12-20 03:58:00,
2013-12-19 23:04:00,27.9,27.9,29.77,NE,49,0.0,0.0,100,0.00,,,0.00,VWS V13.01,2013-12-20 04:04:00,
2013-12-19 23:10:00,27.7,27.7,29.77,NE,49,0.0,0.0,100,0.00,,,0.00,VWS V13.01,2013-12-20 04:10:00,
2013-12-19 23:16:00,27.7,27.7,29.77,NE,49,0.0,0.0,100,0.00,,,0.00,VWS V13.01,2013-12-20 04:16:00,
2013-12-19 23:22:00,27.5,27.5,29.77,NE,49,0.0,0.0,100,0.00,,,0.00,VWS V13.01,2013-12-20 04:22:00,
2013-12-19 23:28:00,27.3,27.3,29.77,NE,49,0.0,0.0,100,0.00,,,0.00,VWS V13.01,2013-12-20 04:28:00,
2013-12-19 23:34:00,27.5,27.5,29.77,NE,49,0.0,0.0,100,0.00,,,0.00,VWS V13.01,2013-12-20 04:34:00,
2013-12-19 23:40:00,27.5,27.5,29.77,NE,49,0.0,0.0,100,0.00,,,0.00,VWS V13.01,2013-12-20 04:40:00,
2013-12-19 23:46:00,27.3,27.3,29.77,NE,49,0.0,0.0,100,0.00,,,0.00,VWS V13.01,2013-12-20 04:46:00,
2013-12-19 23:52:00,27.1,27.1,29.77,NE,49,0.0,0.0,100,0.00,,,0.00,VWS V13.01,2013-12-20 04:52:00,
2013-12-19 23:58:00,27.1,27.1,29.77,NE,49,0.0,0.0,100,0.00,,,0.00,VWS V13.01,2013-12-20 04:58:00,